createdAt,value
2022-10-01T00:02:07.466Z,99544.53
2022-10-01T00:04:37.496Z,99547.16
2022-10-01T00:07:10.967Z,99543.56
2022-10-01T00:09:40.737Z,99545.63
2022-10-01T00:12:07.887Z,99548.91
2022-10-01T00:14:35.783Z,99548.53
2022-10-01T00:17:03.830Z,99552.66
2022-10-01T00:19:30.905Z,99549.53
2022-10-01T00:21:57.862Z,99550.97
2022-10-01T00:24:24.812Z,99549.69
2022-10-01T00:26:51.818Z,99543.06
2022-10-01T00:29:19.103Z,99544.50
2022-10-01T00:31:46.125Z,99543.47
2022-10-01T00:34:15.264Z,99547.00
2022-10-01T00:36:44.942Z,99540.16
2022-10-01T00:39:12.433Z,99533.56
2022-10-01T00:41:39.684Z,99540.53
2022-10-01T00:44:25.474Z,99548.44
2022-10-01T00:46:55.204Z,99533.72
2022-10-01T00:49:26.286Z,99549.25
2022-10-01T00:51:58.168Z,99532.72
2022-10-01T00:54:37.411Z,99542.03
2022-10-01T00:57:08.150Z,99541.44
2022-10-01T00:59:36.516Z,99538.53
2022-10-01T01:02:03.746Z,99537.22
2022-10-01T01:04:31.010Z,99540.38
2022-10-01T01:07:01.170Z,99543.50
2022-10-01T01:09:32.989Z,99544.38
2022-10-01T01:12:11.904Z,99546.44
2022-10-01T01:14:48.543Z,99542.50
2022-10-01T01:17:34.201Z,99540.22
2022-10-01T01:20:19.075Z,99541.88
2022-10-01T01:22:57.767Z,99542.69
2022-10-01T01:25:36.743Z,99526.13
2022-10-01T01:28:19.656Z,99540.38
2022-10-01T01:30:51.209Z,99539.34
2022-10-01T01:33:22.775Z,99523.16
2022-10-01T01:35:55.410Z,99538.66
2022-10-01T01:38:29.021Z,99535.75
2022-10-01T01:41:00.410Z,99534.38
2022-10-01T01:43:36.270Z,99523.22
2022-10-01T01:46:07.782Z,99529.06
2022-10-01T01:48:37.810Z,99524.53
2022-10-01T01:51:33.023Z,99525.03
2022-10-01T01:54:00.551Z,99527.88
2022-10-01T01:56:27.982Z,99520.84
2022-10-01T01:58:55.073Z,99517.53
2022-10-01T02:01:42.261Z,99522.50
2022-10-01T02:04:25.540Z,99525.56
2022-10-01T02:06:54.162Z,99523.03
2022-10-01T02:09:23.954Z,99515.38
2022-10-01T02:11:59.516Z,99509.09
2022-10-01T02:14:37.382Z,99510.38
2022-10-01T02:17:16.728Z,99512.47
2022-10-01T02:20:18.406Z,99512.50
2022-10-01T02:22:54.791Z,99515.00
2022-10-01T02:25:27.121Z,99511.09
2022-10-01T02:28:03.670Z,99497.63
2022-10-01T02:30:35.666Z,99496.63
2022-10-01T02:33:06.886Z,99500.34
2022-10-01T02:35:35.954Z,99496.44
2022-10-01T02:38:07.093Z,99491.44
2022-10-01T02:40:38.019Z,99491.44
2022-10-01T02:43:13.726Z,99504.09
2022-10-01T02:45:45.117Z,99493.97
2022-10-01T02:48:17.565Z,99491.66
2022-10-01T02:51:02.274Z,99490.44
2022-10-01T02:53:36.068Z,99487.53
2022-10-01T02:56:05.398Z,99485.22
2022-10-01T02:58:32.397Z,99474.09
2022-10-01T03:00:59.427Z,99476.63
2022-10-01T03:03:27.438Z,99476.84
2022-10-01T03:05:54.481Z,99474.75
2022-10-01T03:08:21.535Z,99479.56
2022-10-01T03:10:48.482Z,99475.41
2022-10-01T03:13:15.688Z,99476.25
2022-10-01T03:15:45.796Z,99471.47
2022-10-01T03:18:12.856Z,99478.06
2022-10-01T03:20:39.809Z,99476.56
2022-10-01T03:23:06.645Z,99478.22
2022-10-01T03:25:33.648Z,99481.53
2022-10-01T03:28:01.039Z,99474.47
2022-10-01T03:30:28.573Z,99481.19
2022-10-01T03:32:55.460Z,99477.81
2022-10-01T03:35:22.977Z,99474.69
2022-10-01T03:37:50.006Z,99483.41
2022-10-01T03:40:17.102Z,99485.28
2022-10-01T03:42:44.190Z,99475.38
2022-10-01T03:45:11.309Z,99469.59
2022-10-01T03:47:39.477Z,99463.81
2022-10-01T03:50:07.058Z,99459.19
2022-10-01T03:52:33.998Z,99468.09
2022-10-01T03:55:01.126Z,99471.16
2022-10-01T03:57:28.233Z,99471.84
2022-10-01T03:59:55.286Z,99456.75
2022-10-01T04:02:22.343Z,99472.59
2022-10-01T04:07:30.511Z,99455.88
2022-10-01T04:09:57.502Z,99465.19
2022-10-01T04:12:27.045Z,99466.22
2022-10-01T04:14:54.088Z,99468.75
2022-10-01T04:17:21.013Z,99462.44
2022-10-01T04:19:48.042Z,99479.28
2022-10-01T04:22:15.160Z,99464.78
2022-10-01T04:24:42.098Z,99465.22
2022-10-01T04:27:09.428Z,99472.06
2022-10-01T04:29:40.058Z,99476.25
2022-10-01T04:32:07.695Z,99469.81
2022-10-01T04:34:54.995Z,99478.94
2022-10-01T04:37:22.867Z,99467.16
2022-10-01T04:39:50.749Z,99468.75
2022-10-01T04:42:17.865Z,99461.94
2022-10-01T04:44:44.837Z,99469.84
2022-10-01T04:47:11.831Z,99463.63
2022-10-01T04:49:39.006Z,99464.06
2022-10-01T04:52:06.271Z,99474.47
2022-10-01T04:54:33.462Z,99463.50
2022-10-01T04:57:00.651Z,99468.22
2022-10-01T04:59:27.703Z,99470.81
2022-10-01T05:01:54.769Z,99477.59
2022-10-01T05:04:21.809Z,99473.66
2022-10-01T05:06:48.855Z,99474.53
2022-10-01T05:09:15.861Z,99476.25
2022-10-01T05:11:42.751Z,99479.13
2022-10-01T05:14:11.526Z,99474.38
2022-10-01T05:16:38.598Z,99476.25
2022-10-01T05:19:05.532Z,99477.53
2022-10-01T05:21:32.685Z,99478.09
2022-10-01T05:24:00.170Z,99472.97
2022-10-01T05:26:27.361Z,99476.97
2022-10-01T05:28:54.880Z,99474.72
2022-10-01T05:31:22.005Z,99468.56
2022-10-01T05:33:49.099Z,99472.69
2022-10-01T05:36:16.174Z,99474.34
2022-10-01T05:38:43.279Z,99469.00
2022-10-01T05:41:10.746Z,99458.63
2022-10-01T05:43:37.731Z,99467.72
2022-10-01T05:46:07.415Z,99464.59
2022-10-01T05:48:38.292Z,99464.38
2022-10-01T05:51:08.323Z,99450.06
2022-10-01T05:53:37.822Z,99454.63
2022-10-01T05:56:06.742Z,99449.84
2022-10-01T05:58:33.983Z,99440.56
2022-10-01T06:01:01.201Z,99459.16
2022-10-01T06:03:29.046Z,99456.03
2022-10-01T06:05:56.340Z,99452.31
2022-10-01T06:08:23.769Z,99442.41
2022-10-01T06:10:50.862Z,99434.34
2022-10-01T06:13:18.022Z,99452.75
2022-10-01T06:15:47.269Z,99448.53
2022-10-01T06:18:14.808Z,99442.66
2022-10-01T06:20:42.121Z,99443.75
2022-10-01T06:23:12.507Z,99448.44
2022-10-01T06:25:41.645Z,99431.50
2022-10-01T06:28:11.022Z,99441.41
2022-10-01T06:30:39.394Z,99430.25
2022-10-01T06:33:09.394Z,99438.94
2022-10-01T06:35:41.981Z,99414.66
2022-10-01T06:38:09.731Z,99416.69
2022-10-01T06:40:37.516Z,99425.09
2022-10-01T06:43:07.754Z,99424.84
2022-10-01T06:45:41.270Z,99419.19
2022-10-01T06:48:11.390Z,99414.63
2022-10-01T06:50:38.500Z,99413.25
2022-10-01T06:53:05.957Z,99414.31
2022-10-01T06:55:35.226Z,99418.41
2022-10-01T06:58:07.998Z,99410.78
2022-10-01T07:00:36.795Z,99408.72
2022-10-01T07:03:14.649Z,99410.59
2022-10-01T07:05:42.152Z,99399.19
2022-10-01T07:08:09.283Z,99398.56
2022-10-01T07:10:36.669Z,99401.44
2022-10-01T07:13:12.212Z,99407.16
2022-10-01T07:15:39.447Z,99386.91
2022-10-01T07:18:09.779Z,99394.75
2022-10-01T07:20:39.924Z,99391.28
2022-10-01T07:23:10.364Z,99393.03
2022-10-01T07:25:38.986Z,99389.69
2022-10-01T07:28:08.062Z,99390.47
2022-10-01T07:30:38.294Z,99392.94
2022-10-01T07:33:05.442Z,99381.94
2022-10-01T07:35:32.561Z,99384.22
2022-10-01T07:38:00.197Z,99387.16
2022-10-01T07:40:27.713Z,99382.03
2022-10-01T07:42:56.430Z,99385.34
2022-10-01T07:45:26.056Z,99378.56
2022-10-01T07:47:57.585Z,99375.44
2022-10-01T07:50:26.304Z,99384.34
2022-10-01T07:52:57.654Z,99364.44
2022-10-01T07:55:27.312Z,99367.22
2022-10-01T07:57:56.676Z,99359.56
2022-10-01T08:00:26.568Z,99355.75
2022-10-01T08:02:58.665Z,99357.88
2022-10-01T08:05:29.212Z,99355.38
2022-10-01T08:08:01.294Z,99352.38
2022-10-01T08:10:29.261Z,99355.84
2022-10-01T08:13:01.544Z,99344.34
2022-10-01T08:15:29.332Z,99334.91
2022-10-01T08:18:00.457Z,99337.50
2022-10-01T08:20:28.364Z,99331.19
2022-10-01T08:23:01.637Z,99331.78
2022-10-01T08:25:28.798Z,99327.53
2022-10-01T08:27:55.892Z,99318.53
2022-10-01T08:30:22.927Z,99318.19
2022-10-01T08:32:54.972Z,99324.13
2022-10-01T08:35:22.887Z,99319.00
2022-10-01T08:38:16.287Z,99303.75
2022-10-01T08:40:51.457Z,99301.56
2022-10-01T08:43:27.667Z,99299.13
2022-10-01T08:45:58.305Z,99307.38
2022-10-01T08:48:57.519Z,99300.78
2022-10-01T08:51:43.516Z,99303.59
2022-10-01T08:54:18.957Z,99292.19
2022-10-01T08:56:48.062Z,99298.41
2022-10-01T08:59:55.753Z,99294.63
2022-10-01T09:02:26.275Z,99290.09
2022-10-01T09:05:01.547Z,99293.00
2022-10-01T09:08:51.381Z,99284.44
2022-10-01T09:11:34.807Z,99279.81
2022-10-01T09:14:10.008Z,99288.50
2022-10-01T09:16:57.089Z,99284.03
2022-10-01T09:19:47.893Z,99295.03
2022-10-01T09:22:21.860Z,99288.41
2022-10-01T09:25:00.214Z,99279.41
2022-10-01T09:27:28.330Z,99272.50
2022-10-01T09:30:01.940Z,99261.25
2022-10-01T09:32:36.235Z,99264.16
2022-10-01T09:35:15.596Z,99260.13
2022-10-01T09:37:51.891Z,99249.22
2022-10-01T09:40:38.583Z,99256.09
2022-10-01T09:43:08.764Z,99246.59
2022-10-01T09:45:37.960Z,99246.13
2022-10-01T09:48:30.322Z,99245.47
2022-10-01T09:51:40.047Z,99246.72
2022-10-01T09:54:33.859Z,99240.06
2022-10-01T09:57:07.124Z,99237.13
2022-10-01T10:00:13.778Z,99230.53
2022-10-01T10:02:49.960Z,99226.56
2022-10-01T10:05:19.816Z,99223.75
2022-10-01T10:08:03.391Z,99217.97
2022-10-01T10:10:37.060Z,99213.03
2022-10-01T10:13:14.258Z,99209.28
2022-10-01T10:15:57.758Z,99205.63
2022-10-01T10:18:39.233Z,99198.59
2022-10-01T10:21:15.216Z,99192.06
2022-10-01T10:23:50.652Z,99196.44
2022-10-01T10:26:22.113Z,99183.50
2022-10-01T10:28:49.614Z,99182.97
2022-10-01T10:31:20.975Z,99181.19
2022-10-01T10:33:51.262Z,99182.88
2022-10-01T10:36:19.983Z,99176.03
2022-10-01T10:38:49.844Z,99181.56
2022-10-01T10:41:22.447Z,99187.09
2022-10-01T10:43:49.615Z,99180.38
2022-10-01T10:46:33.154Z,99176.97
2022-10-01T10:49:10.631Z,99179.78
2022-10-01T10:52:17.679Z,99177.47
2022-10-01T10:54:48.782Z,99169.34
2022-10-01T10:57:31.037Z,99170.84
2022-10-01T11:00:13.836Z,99162.78
2022-10-01T11:02:49.618Z,99167.53
2022-10-01T11:05:43.446Z,99157.78
2022-10-01T11:08:19.553Z,99156.47
2022-10-01T11:11:10.517Z,99153.06
2022-10-01T11:13:58.457Z,99159.88
2022-10-01T11:17:07.245Z,99164.00
2022-10-01T11:19:43.247Z,99152.97
2022-10-01T11:22:41.346Z,99151.41
2022-10-01T11:25:53.783Z,99150.84
2022-10-01T11:29:12.071Z,99144.97
2022-10-01T11:31:57.208Z,99139.09
2022-10-01T11:34:50.447Z,99130.28
2022-10-01T11:37:20.443Z,99127.22
2022-10-01T11:39:53.773Z,99130.53
2022-10-01T11:42:32.228Z,99122.03
2022-10-01T11:45:13.999Z,99117.34
2022-10-01T11:47:50.658Z,99114.88
2022-10-01T11:50:27.434Z,99116.03
2022-10-01T11:53:06.217Z,99115.38
2022-10-01T11:55:59.837Z,99107.47
2022-10-01T11:58:52.196Z,99100.50
2022-10-01T12:02:44.138Z,99100.78
2022-10-01T12:05:01.938Z,99098.53
2022-10-01T12:08:05.829Z,99097.56
2022-10-01T12:10:46.239Z,99099.38
2022-10-01T12:13:17.453Z,99088.56
2022-10-01T12:16:17.594Z,99087.75
2022-10-01T12:18:55.937Z,99076.81
2022-10-01T12:21:37.228Z,99069.78
2022-10-01T12:24:11.677Z,99071.56
2022-10-01T12:27:06.360Z,99063.81
2022-10-01T12:30:43.183Z,99060.56
2022-10-01T12:38:11.470Z,99066.63
2022-10-01T12:42:28.686Z,99056.53
2022-10-01T12:50:13.635Z,99059.38
2022-10-01T12:53:51.033Z,99056.53
2022-10-01T12:57:45.698Z,99059.94
2022-10-01T13:01:09.272Z,99034.81
2022-10-01T13:05:03.209Z,99044.50
2022-10-01T13:08:41.981Z,99037.44
2022-10-01T13:12:18.763Z,99020.53
2022-10-01T13:19:58.492Z,99028.34
2022-10-01T13:38:44.244Z,99022.72
2022-10-01T13:41:27.915Z,99017.88
2022-10-01T13:45:06.742Z,99021.56
2022-10-01T13:48:10.366Z,99016.78
2022-10-01T13:51:29.993Z,98993.81
2022-10-01T14:00:05.317Z,99009.63
2022-10-01T14:02:38.667Z,98984.63
2022-10-01T14:05:28.512Z,98999.78
2022-10-01T14:08:10.932Z,99004.47
2022-10-01T14:11:07.145Z,98992.72
2022-10-01T14:14:02.134Z,98986.19
2022-10-01T14:16:30.418Z,98991.66
2022-10-01T14:18:59.677Z,98988.47
2022-10-01T14:21:45.370Z,98990.69
2022-10-01T14:24:22.435Z,98976.78
2022-10-01T14:27:05.019Z,98966.91
2022-10-01T14:29:40.215Z,98961.63
2022-10-01T14:32:23.171Z,98950.25
2022-10-01T14:35:21.006Z,98936.41
2022-10-01T14:37:57.112Z,98941.56
2022-10-01T14:40:24.722Z,98942.63
2022-10-01T14:42:59.096Z,98948.06
2022-10-01T14:45:26.699Z,98949.69
2022-10-01T14:48:05.610Z,98954.00
2022-10-01T14:50:38.250Z,98946.97
2022-10-01T14:53:09.590Z,98938.19
2022-10-01T14:55:39.277Z,98937.63
2022-10-01T14:58:06.456Z,98941.63
2022-10-01T15:00:34.960Z,98932.63
2022-10-01T15:03:13.242Z,98944.25
2022-10-01T15:06:13.806Z,98926.03
2022-10-01T15:08:48.107Z,98920.63
2022-10-01T15:11:33.837Z,98910.56
2022-10-01T15:14:10.848Z,98916.03
2022-10-01T15:16:38.790Z,98906.06
2022-10-01T15:19:16.115Z,98894.00
2022-10-01T15:21:55.035Z,98895.53
2022-10-01T15:24:29.960Z,98899.75
2022-10-01T15:26:58.453Z,98882.28
2022-10-01T15:29:28.134Z,98890.72
2022-10-01T15:32:06.543Z,98885.91
2022-10-01T15:34:35.311Z,98871.81
2022-10-01T15:37:03.720Z,98878.13
2022-10-01T15:39:51.870Z,98874.63
2022-10-01T15:42:22.028Z,98871.81
2022-10-01T15:45:09.007Z,98866.06
2022-10-01T15:47:49.439Z,98864.41
2022-10-01T15:50:20.115Z,98846.63
2022-10-01T15:53:02.306Z,98854.84
2022-10-01T15:55:43.081Z,98840.19
2022-10-01T15:58:32.427Z,98833.22
2022-10-01T16:01:05.847Z,98835.25
2022-10-01T16:03:48.255Z,98828.16
2022-10-01T16:06:23.950Z,98825.38
2022-10-01T16:09:32.655Z,98825.06
2022-10-01T16:11:59.871Z,98829.63
2022-10-01T16:14:42.840Z,98821.75
2022-10-01T16:17:21.948Z,98822.00
2022-10-01T16:19:56.887Z,98803.97
2022-10-01T16:22:29.449Z,98809.56
2022-10-01T16:25:02.792Z,98786.22
2022-10-01T16:27:44.128Z,98788.06
2022-10-01T16:30:23.291Z,98778.22
2022-10-01T16:32:50.540Z,98764.38
2022-10-01T16:35:26.540Z,98780.34
2022-10-01T16:37:58.070Z,98778.00
2022-10-01T16:40:27.137Z,98768.88
2022-10-01T16:42:54.535Z,98764.78
2022-10-01T16:45:26.959Z,98765.59
2022-10-01T16:47:58.525Z,98771.47
2022-10-01T16:50:26.101Z,98767.03
2022-10-01T16:53:13.018Z,98764.34
2022-10-01T16:56:00.834Z,98747.94
2022-10-01T16:58:28.127Z,98739.72
2022-10-01T17:00:59.056Z,98738.78
2022-10-01T17:03:28.219Z,98733.16
2022-10-01T17:05:57.713Z,98722.59
2022-10-01T17:08:24.939Z,98721.13
2022-10-01T17:11:00.084Z,98726.22
2022-10-01T17:13:29.123Z,98722.72
2022-10-01T17:15:56.315Z,98720.28
2022-10-01T17:18:23.498Z,98716.50
2022-10-01T17:20:50.578Z,98704.56
2022-10-01T17:23:19.809Z,98697.66
2022-10-01T17:25:47.022Z,98698.97
2022-10-01T17:28:17.341Z,98690.78
2022-10-01T17:30:49.353Z,98680.31
2022-10-01T17:33:19.552Z,98666.53
2022-10-01T17:35:54.782Z,98667.94
2022-10-01T17:38:23.194Z,98671.78
2022-10-01T17:40:56.403Z,98662.63
2022-10-01T17:43:24.371Z,98649.16
2022-10-01T17:45:57.538Z,98663.66
2022-10-01T17:48:26.185Z,98646.41
2022-10-01T17:51:05.705Z,98652.41
2022-10-01T17:53:42.607Z,98644.63
2022-10-01T17:56:14.752Z,98639.13
2022-10-01T17:58:45.239Z,98633.19
2022-10-01T18:01:22.289Z,98631.84
2022-10-01T18:03:55.588Z,98616.88
2022-10-01T18:06:24.615Z,98610.09
2022-10-01T18:08:55.568Z,98608.94
2022-10-01T18:11:25.638Z,98608.13
2022-10-01T18:13:53.268Z,98597.81
2022-10-01T18:16:21.146Z,98604.19
2022-10-01T18:19:51.890Z,98596.00
2022-10-01T18:21:36.016Z,98594.44
2022-10-01T18:24:04.755Z,98584.47
2022-10-01T18:26:35.322Z,98580.13
2022-10-01T18:29:02.500Z,98569.03
2022-10-01T18:31:59.351Z,98571.63
2022-10-01T18:34:38.505Z,98556.03
2022-10-01T18:37:16.141Z,98553.56
2022-10-01T18:39:49.972Z,98558.38
2022-10-01T18:42:31.332Z,98555.44
2022-10-01T18:45:01.381Z,98566.44
2022-10-01T18:47:56.439Z,98571.34
2022-10-01T18:50:35.734Z,98575.06
2022-10-01T18:53:33.794Z,98589.72
2022-10-01T18:56:28.091Z,98579.06
2022-10-01T18:59:34.311Z,98588.66
2022-10-01T19:02:50.371Z,98569.94
2022-10-01T19:05:42.424Z,98570.69
2022-10-01T19:08:40.457Z,98563.84
2022-10-01T19:11:23.735Z,98564.66
2022-10-01T19:14:22.158Z,98555.91
2022-10-01T19:17:18.174Z,98560.06
2022-10-01T19:20:07.135Z,98558.19
2022-10-01T19:22:34.126Z,98556.31
2022-10-01T19:25:19.714Z,98543.00
2022-10-01T19:28:05.701Z,98541.91
2022-10-01T19:30:42.939Z,98524.00
2022-10-01T19:33:11.965Z,98515.50
2022-10-01T19:35:46.800Z,98509.69
2022-10-01T19:38:35.128Z,98514.03
2022-10-01T19:41:27.965Z,98506.00
2022-10-01T19:44:02.874Z,98497.91
2022-10-01T19:46:37.820Z,98487.53
2022-10-01T19:49:15.017Z,98479.91
2022-10-01T19:52:00.341Z,98487.53
2022-10-01T19:54:32.742Z,98474.03
2022-10-01T19:57:17.187Z,98481.09
2022-10-01T19:59:44.430Z,98474.63
2022-10-01T20:02:24.291Z,98478.47
2022-10-01T20:04:58.246Z,98467.03
2022-10-01T20:07:37.580Z,98460.56
2022-10-01T20:10:32.549Z,98457.31
2022-10-01T20:13:33.092Z,98450.53
2022-10-01T20:16:12.746Z,98441.84
2022-10-01T20:18:58.565Z,98442.00
2022-10-01T20:21:39.064Z,98443.28
2022-10-01T20:24:15.128Z,98445.41
2022-10-01T20:26:48.233Z,98431.09
2022-10-01T20:29:29.050Z,98437.44
2022-10-01T20:31:56.250Z,98438.69
2022-10-01T20:35:01.846Z,98425.22
2022-10-01T20:37:45.720Z,98427.38
2022-10-01T20:40:28.317Z,98436.44
2022-10-01T20:43:03.160Z,98425.63
2022-10-01T20:45:34.363Z,98432.50
2022-10-01T20:48:11.881Z,98436.13
2022-10-01T20:50:46.510Z,98426.97
2022-10-01T20:53:22.056Z,98426.78
2022-10-01T20:55:54.707Z,98430.25
2022-10-01T20:58:29.433Z,98423.78
2022-10-01T21:01:07.778Z,98421.25
2022-10-01T21:03:39.711Z,98424.22
2022-10-01T21:06:23.310Z,98419.00
2022-10-01T21:08:59.054Z,98413.88
2022-10-01T21:11:45.206Z,98423.94
2022-10-01T21:14:21.608Z,98423.00
2022-10-01T21:17:21.051Z,98422.53
2022-10-01T21:20:13.251Z,98414.38
2022-10-01T21:23:10.648Z,98409.31
2022-10-01T21:25:57.184Z,98399.31
2022-10-01T21:29:41.241Z,98411.09
2022-10-01T21:32:14.121Z,98413.41
2022-10-01T21:35:13.341Z,98419.13
2022-10-01T21:37:46.262Z,98413.22
2022-10-01T21:40:42.598Z,98417.63
2022-10-01T21:43:43.850Z,98408.50
2022-10-01T21:46:37.006Z,98415.53
2022-10-01T21:49:13.402Z,98422.22
2022-10-01T21:52:00.067Z,98416.38
2022-10-01T21:55:02.255Z,98407.09
2022-10-01T21:58:01.522Z,98411.09
2022-10-01T22:00:29.714Z,98412.19
2022-10-01T22:03:00.706Z,98413.47
2022-10-01T22:05:38.023Z,98410.78
2022-10-01T22:08:44.213Z,98419.47
2022-10-01T22:11:18.707Z,98421.09
2022-10-01T22:14:19.471Z,98430.56
2022-10-01T22:16:57.835Z,98423.78
2022-10-01T22:19:31.517Z,98433.44
2022-10-01T22:22:21.376Z,98428.28
2022-10-01T22:24:53.754Z,98429.59
2022-10-01T22:27:45.452Z,98424.75
2022-10-01T22:30:17.233Z,98431.69
2022-10-01T22:32:50.505Z,98428.88
2022-10-01T22:35:26.359Z,98422.47
2022-10-01T22:38:02.268Z,98426.34
2022-10-01T22:40:34.050Z,98436.09
2022-10-01T22:43:11.176Z,98426.19
2022-10-01T22:46:40.092Z,98435.09
2022-10-01T22:49:13.232Z,98446.94
2022-10-01T22:51:58.190Z,98443.06
2022-10-01T22:54:43.828Z,98442.41
2022-10-01T22:57:27.231Z,98434.06
2022-10-01T23:00:10.968Z,98433.28
2022-10-01T23:03:15.227Z,98436.94
2022-10-01T23:06:06.355Z,98438.38
2022-10-01T23:09:03.072Z,98445.91
2022-10-01T23:12:00.500Z,98437.94
2022-10-01T23:14:46.494Z,98434.56
2022-10-01T23:17:22.244Z,98426.38
2022-10-01T23:20:13.642Z,98436.72
2022-10-01T23:22:54.084Z,98452.28
2022-10-01T23:25:58.371Z,98444.09
2022-10-01T23:28:48.983Z,98436.34
2022-10-01T23:31:45.624Z,98433.91
2022-10-01T23:34:55.441Z,98442.34
2022-10-01T23:37:41.286Z,98450.03
2022-10-01T23:40:13.207Z,98439.88
2022-10-01T23:42:59.933Z,98439.06
2022-10-01T23:45:49.494Z,98449.47
2022-10-01T23:48:28.052Z,98448.75
2022-10-01T23:51:03.303Z,98451.00
2022-10-01T23:53:42.812Z,98459.28
2022-10-01T23:56:40.011Z,98441.31
2022-10-01T23:59:34.355Z,98450.88
